Flight Track Log - Related Links

Times and Time Zones

All times are in EDT time to prevent confusion due to time zone crossing. See the SWA561 flight status page for this flight to view local times or setup timezone preferences in your user account.

Time Position Orientation Groundspeed Altitude Reporting Facility
EDT Latitude Longitude Course Direction KTS MPH feet Rate Location/Type
Thu 07:57:31 PM 37.7333 -122.2500 288° West 153 176 1,500  Level Northern Cal TRACON
Thu 07:58:31 PM 37.7500 -122.3167 288° West 217 250 5,000 3,635 Climbing Northern Cal TRACON
Thu 07:59:15 PM 37.7481 -122.3528 266° West 216 249 7,800 3,657 Climbing Oakland Center
Thu 08:00:16 PM 37.6861 -122.3739 195° South 233 268 11,400 3,711 Climbing Oakland Center
Thu 08:00:31 PM 37.6667 -122.3833 201° Southwest 251 289 12,500 2,903 Climbing Northern Cal TRACON
Thu 08:01:18 PM 37.6167 -122.3850 182° South 263 303 14,400 1,944 Climbing Oakland Center
Thu 08:02:19 PM 37.5597 -122.3022 131° Southeast 324 373 16,000 2,195 Climbing Oakland Center
Thu 08:03:21 PM 37.4864 -122.2106 135° Southeast 372 428 18,900 2,829 Climbing Oakland Center
Thu 08:04:22 PM 37.4089 -122.1136 135° Southeast 391 450 21,800 3,073 Climbing Oakland Center
Thu 08:05:24 PM 37.3122 -121.9928 135° Southeast 410 472 25,200 2,829 Climbing Oakland Center
Thu 08:06:25 PM 37.2294 -121.8883 135° Southeast 422 486 27,600 2,262 Climbing Oakland Center
Thu 08:07:26 PM 37.1386 -121.7753 135° Southeast 435 501 29,800 1,902 Climbing Oakland Center
Thu 08:08:28 PM 37.0533 -121.6719 136° Southeast 448 516 31,500 2,098 Climbing Oakland Center
Thu 08:09:29 PM 36.9639 -121.5636 136° Southeast 450 518 34,100 2,195 Climbing Oakland Center
Thu 08:10:31 PM 36.8800 -121.4553 134° Southeast 437 503 36,000 1,463 Climbing Oakland Center
Thu 08:11:32 PM 36.7836 -121.3425 137° Southeast 439 505 37,100 885 Climbing Oakland Center
Thu 08:12:33 PM 36.6919 -121.2294 135° Southeast 458 527 37,800 927 Climbing Oakland Center
Thu 08:13:35 PM 36.5989 -121.1164 136° Southeast 467 537 39,000 585 Climbing Oakland Center
Thu 08:14:36 PM 36.5081 -121.0056 136° Southeast 458 527 39,000  Level Oakland Center
Thu 08:15:37 PM 36.4167 -120.8969 136° Southeast 453 521 39,000  Level Oakland Center
Thu 08:16:39 PM 36.3283 -120.7850 134° Southeast 454 522 39,000  Level Oakland Center
Thu 08:17:40 PM 36.2186 -120.6578 137° Southeast 450 518 39,000  Level Oakland Center
Thu 08:18:42 PM 36.1289 -120.5492 136° Southeast 450 518 39,000  Level Oakland Center
Thu 08:19:43 PM 36.0358 -120.4358 135° Southeast 480 552 39,000  Level Oakland Center
Thu 08:20:45 PM 35.9464 -120.3325 137° Southeast 442 509 39,000  Level Oakland Center
Thu 08:21:46 PM 35.8533 -120.2233 136° Southeast 455 524 39,000  Level Oakland Center
Thu 08:22:48 PM 35.7611 -120.1144 136° Southeast 456 525 39,000  Level Oakland Center
Thu 08:23:49 PM 35.6689 -120.0044 136° Southeast 456 525 39,000  Level Oakland Center
Thu 08:24:50 PM 35.5667 -119.9089 143° Southeast 452 520 39,000  Level Oakland Center
Thu 08:25:52 PM 35.4614 -119.8181 145° Southeast 457 526 39,000  Level Oakland Center
Thu 08:26:53 PM 35.3567 -119.7286 145° Southeast 453 521 39,000 -73 Level Oakland Center
Thu 08:27:14 PM 35.3158 -119.6928 144° Southeast 456 525 38,900 -1,229 Descending Los Angeles Center
Thu 08:28:16 PM 35.2344 -119.6225 145° Southeast 450 518 37,300 -2,400 Descending Los Angeles Center
Thu 08:29:19 PM 35.1125 -119.5181 145° Southeast 446 513 33,900 -2,976 Descending Los Angeles Center
Thu 08:30:21 PM 35.0078 -119.4281 145° Southeast 454 522 31,100 -2,710 Descending Los Angeles Center
Thu 08:31:23 PM 34.8858 -119.3244 145° Southeast 448 516 28,300 -2,468 Descending Los Angeles Center
Thu 08:32:25 PM 34.7872 -119.2422 146° Southeast 434 499 26,000 -1,941 Descending Los Angeles Center
Thu 08:33:39 PM 34.6928 -119.1631 145° Southeast 415 478 23,900 -2,118 Descending Los Angeles Center
Thu 08:34:41 PM 34.5747 -119.0647 146° Southeast 399 459 21,200 -2,208 Descending Los Angeles Center
Thu 08:35:44 PM 34.4886 -118.9919 145° Southeast 380 437 19,300 -1,872 Descending Los Angeles Center
Thu 08:36:46 PM 34.4039 -118.9214 146° Southeast 370 426 17,300 -1,984 Descending Los Angeles Center
Thu 08:37:48 PM 34.3169 -118.8658 152° Southeast 355 409 15,200 -2,032 Descending Los Angeles Center
Thu 08:38:50 PM 34.2217 -118.8314 163° South 356 410 13,100 -2,177 Descending Los Angeles Center
Thu 08:39:52 PM 34.1119 -118.7914 163° South 346 398 10,700 -1,500 Descending Los Angeles Center
Thu 08:40:54 PM 34.0372 -118.7336 147° Southeast 305 351 10,000 -387 Descending Los Angeles Center
Thu 08:41:56 PM 34.0272 -118.6425 98° East 272 313 9,900 -726 Descending Los Angeles Center
Thu 08:42:58 PM 34.0189 -118.5528 96° East 269 310 8,500 -1,355 Descending Los Angeles Center
Thu 08:44:00 PM 34.0100 -118.4564 96° East 267 307 7,100 -871 Descending Los Angeles Center
Thu 08:45:02 PM 34.0203 -118.3842 80° East 257 296 6,700 -1,200 Descending Los Angeles Center
Thu 08:46:05 PM 34.0319 -118.2806 82° East 258 297 4,600 -1,200 Descending Los Angeles Center
Thu 08:47:07 PM 34.0033 -118.2342 127° Southeast 212 244 4,200 -774 Descending Los Angeles Center
Thu 08:48:09 PM 33.9689 -118.2742 224° Southwest 182 209 3,000 -1,258 Descending Los Angeles Center
Thu 08:49:11 PM 33.9619 -118.3236 260° West 162 186 1,600 -1,113 Descending Los Angeles Center
Thu 08:50:13 PM 33.9567 -118.3669 262° West 145 167 700 -662 Descending Los Angeles Center
Thu 08:51:27 PM 33.9506 -118.4183 262° West 132 152 100 -486 Descending Los Angeles Center
Thu 08:53:00 PM 33.9425 -118.4081 228° Southwest  Level Estimated

Login

Don't have an account? Register now (free) for customized features, flight alerts, and more!